Flight Track Log - Related Links

Times and Time Zones

All times are in EDT time to prevent confusion due to time zone crossing. See the UAL1052 flight status page for this flight to view local times or setup timezone preferences in your user account.

Time Position Orientation Groundspeed Altitude Reporting Facility
EDT Latitude Longitude Course Direction KTS MPH feet Rate Location/Type
Mon 04:36:17 PM 40.6630 -74.1850 187° South 167 192 900  Level FlightAware ADS-B
Mon 04:36:35 PM 40.6444 -74.1881 187° South 183 211 1,900 2,545 Climbing FlightAware ADS-B
Mon 04:36:50 PM 40.6319 -74.1955 204° Southwest 197 227 2,300 2,339 Climbing FlightAware ADS-B
Mon 04:37:34 PM 40.6087 -74.2408 236° Southwest 219 252 4,200 2,676 Climbing FlightAware ADS-B
Mon 04:38:04 PM 40.6012 -74.2849 257° West 252 290 5,600 3,040 Climbing FlightAware ADS-B
Mon 04:38:49 PM 40.5967 -74.3558 265° West 264 304 8,000 3,120 Climbing FlightAware ADS-B
Mon 04:39:19 PM 40.5940 -74.4030 266° West 273 314 9,500 2,613 Climbing FlightAware ADS-B
Mon 04:39:51 PM 40.5910 -74.4590 266° West 287 330 10,700 1,971 Climbing FlightAware ADS-B
Mon 04:40:29 PM 40.5870 -74.5260 266° West 309 356 11,800 2,027 Climbing FlightAware ADS-B
Mon 04:41:05 PM 40.5830 -74.5960 266° West 328 377 13,200 2,571 Climbing FlightAware ADS-B
Mon 04:41:39 PM 40.5780 -74.6660 265° West 336 387 14,800 2,743 Climbing FlightAware ADS-B
Mon 04:42:15 PM 40.5740 -74.7400 266° West 345 397 16,400 2,559 Climbing FlightAware ADS-B
Mon 04:42:47 PM 40.5690 -74.8080 264° West 352 405 17,700 2,382 Climbing FlightAware ADS-B
Mon 04:43:23 PM 40.5640 -74.8840 265° West 360 414 19,100 2,229 Climbing FlightAware ADS-B
Mon 04:43:57 PM 40.5590 -74.9580 265° West 367 422 20,300 2,129 Climbing FlightAware ADS-B
Mon 04:44:25 PM 40.5510 -75.0220 261° West 378 435 21,300 1,773 Climbing FlightAware ADS-B
Mon 04:44:41 PM 40.5380 -75.0560 243° Southwest 392 451 21,600 1,565 Climbing FlightAware ADS-B
Mon 04:45:11 PM 40.5060 -75.1100 232° Southwest 401 461 22,500 1,826 Climbing FlightAware ADS-B
Mon 04:45:50 PM 40.4600 -75.1810 230° Southwest 411 473 23,700 1,784 Climbing FlightAware ADS-B
Mon 04:46:25 PM 40.4140 -75.2540 230° Southwest 423 487 24,700 1,739 Climbing FlightAware ADS-B
Mon 04:46:59 PM 40.3700 -75.3230 230° Southwest 431 496 25,700 1,791 Climbing FlightAware ADS-B
Mon 04:47:32 PM 40.3300 -75.3860 230° Southwest 436 502 26,700 1,775 Climbing FlightAware ADS-B
Mon 04:48:10 PM 40.2810 -75.4630 230° Southwest 440 506 27,800 1,297 Climbing FlightAware ADS-B
Mon 04:48:46 PM 40.2320 -75.5410 231° Southwest 459 528 28,300 1,029 Climbing FlightAware ADS-B
Mon 04:49:20 PM 40.1910 -75.6150 234° Southwest 467 537 29,000 1,324 Climbing FlightAware ADS-B
Mon 04:49:54 PM 40.1480 -75.7000 237° Southwest 473 544 29,800 1,629 Climbing FlightAware ADS-B
Mon 04:50:30 PM 40.1060 -75.7840 237° Southwest 472 543 30,900 1,750 Climbing FlightAware ADS-B
Mon 04:51:06 PM 40.0620 -75.8710 237° Southwest 469 540 31,900 1,775 Climbing FlightAware ADS-B
Mon 04:51:41 PM 40.0250 -75.9550 240° Southwest 466 536 33,000 1,800 Climbing FlightAware ADS-B
Mon 04:52:16 PM 39.9860 -76.0400 239° Southwest 464 534 34,000 1,433 Climbing FlightAware ADS-B
Mon 04:52:48 PM 39.9520 -76.1160 240° Southwest 469 540 34,600 1,147 Climbing FlightAware ADS-B
Mon 04:53:24 PM 39.9110 -76.2050 239° Southwest 472 543 35,300 1,151 Climbing FlightAware ADS-B
Mon 04:54:01 PM 39.8690 -76.2950 239° Southwest 476 548 36,000 917 Climbing FlightAware ADS-B
Mon 04:54:36 PM 39.8290 -76.3800 239° Southwest 484 557 36,400 716 Climbing FlightAware ADS-B
Mon 04:55:08 PM 39.7910 -76.4610 239° Southwest 488 562 36,800 783 Climbing FlightAware ADS-B
Mon 04:55:45 PM 39.7480 -76.5540 239° Southwest 493 567 37,300 771 Climbing FlightAware ADS-B
Mon 04:56:18 PM 39.7090 -76.6380 239° Southwest 497 572 37,700 583 Climbing FlightAware ADS-B
Mon 04:56:57 PM 39.6630 -76.7360 239° Southwest 499 574 38,000 254 Climbing FlightAware ADS-B
Mon 04:57:29 PM 39.6260 -76.8140 238° Southwest 499 574 38,000  Level FlightAware ADS-B
Mon 04:58:04 PM 39.5820 -76.9080 239° Southwest 499 574 38,000  Level FlightAware ADS-B
Mon 04:58:39 PM 39.5400 -76.9950 238° Southwest 501 577 38,000  Level FlightAware ADS-B
Mon 04:59:16 PM 39.4960 -77.0890 239° Southwest 501 577 38,000  Level FlightAware ADS-B
Mon 04:59:49 PM 39.4550 -77.1740 238° Southwest 503 579 38,000  Level FlightAware ADS-B
Mon 05:00:25 PM 39.4120 -77.2660 239° Southwest 503 579 38,000  Level FlightAware ADS-B
Mon 05:01:01 PM 39.3670 -77.3580 238° Southwest 504 580 38,000  Level FlightAware ADS-B
Mon 05:01:33 PM 39.3290 -77.4380 238° Southwest 503 579 38,000  Level FlightAware ADS-B
Mon 05:02:09 PM 39.2840 -77.5320 238° Southwest 504 580 38,000  Level FlightAware ADS-B
Mon 05:02:45 PM 39.2390 -77.6250 238° Southwest 504 580 38,000  Level FlightAware ADS-B
Mon 05:03:18 PM 39.2010 -77.7050 239° Southwest 505 581 38,000  Level FlightAware ADS-B
Mon 05:03:55 PM 39.1540 -77.8020 238° Southwest 506 582 38,000  Level FlightAware ADS-B
Mon 05:04:31 PM 39.1090 -77.8940 238° Southwest 506 582 38,000  Level FlightAware ADS-B
Mon 05:05:05 PM 39.0670 -77.9810 238° Southwest 506 582 38,000  Level FlightAware ADS-B
Mon 05:05:41 PM 39.0220 -78.0710 237° Southwest 505 581 38,000  Level FlightAware ADS-B
Mon 05:06:14 PM 38.9830 -78.1510 238° Southwest 504 580 38,000  Level FlightAware ADS-B
Mon 05:06:51 PM 38.9350 -78.2500 238° Southwest 503 579 38,000  Level FlightAware ADS-B
Mon 05:07:22 PM 38.8980 -78.3240 237° Southwest 502 578 38,000  Level FlightAware ADS-B
Mon 05:08:01 PM 38.8480 -78.4260 238° Southwest 500 575 38,000  Level FlightAware ADS-B
Mon 05:08:33 PM 38.8110 -78.5010 238° Southwest 499 574 38,000  Level FlightAware ADS-B
Mon 05:09:09 PM 38.7660 -78.5900 237° Southwest 499 574 38,000  Level FlightAware ADS-B
Mon 05:09:41 PM 38.7240 -78.6770 238° Southwest 499 574 38,000  Level FlightAware ADS-B
Mon 05:10:27 PM 38.6670 -78.7900 237° Southwest 499 574 38,000  Level FlightAware ADS-B
Mon 05:11:02 PM 38.6240 -78.8760 237° Southwest 498 573 38,000  Level FlightAware ADS-B
Mon 05:11:32 PM 38.5860 -78.9520 237° Southwest 498 573 38,000  Level FlightAware ADS-B
Mon 05:12:22 PM 38.5250 -79.0710 237° Southwest 498 573 38,000  Level FlightAware ADS-B
Mon 05:12:54 PM 38.4850 -79.1500 237° Southwest 498 573 38,000  Level FlightAware ADS-B
Mon 05:13:32 PM 38.4380 -79.2440 237° Southwest 496 571 38,000  Level FlightAware ADS-B
Mon 05:14:06 PM 38.3950 -79.3280 237° Southwest 494 568 38,000  Level FlightAware ADS-B
Mon 05:14:43 PM 38.3480 -79.4220 238° Southwest 492 566 38,000  Level FlightAware ADS-B
Mon 05:15:19 PM 38.3040 -79.5080 237° Southwest 491 565 38,000  Level FlightAware ADS-B
Mon 05:15:51 PM 38.2640 -79.5850 237° Southwest 490 564 38,000  Level FlightAware ADS-B
Mon 05:16:28 PM 38.2180 -79.6740 237° Southwest 488 562 38,000  Level FlightAware ADS-B
Mon 05:17:04 PM 38.1740 -79.7610 237° Southwest 487 560 38,000  Level FlightAware ADS-B
Mon 05:17:36 PM 38.1340 -79.8380 237° Southwest 485 558 38,000  Level FlightAware ADS-B
Mon 05:18:11 PM 38.0910 -79.9210 237° Southwest 485 558 38,000  Level FlightAware ADS-B
Mon 05:18:46 PM 38.0480 -80.0030 236° Southwest 484 557 38,000  Level FlightAware ADS-B
Mon 05:19:22 PM 38.0030 -80.0890 236° Southwest 484 557 38,000  Level FlightAware ADS-B
Mon 05:19:58 PM 37.9590 -80.1740 237° Southwest 482 555 38,000  Level FlightAware ADS-B
Mon 05:20:31 PM 37.9180 -80.2510 236° Southwest 482 555 38,000  Level FlightAware ADS-B
Mon 05:21:06 PM 37.8760 -80.3330 237° Southwest 481 554 38,000  Level FlightAware ADS-B
Mon 05:21:43 PM 37.8310 -80.4190 236° Southwest 481 554 38,000  Level FlightAware ADS-B
Mon 05:22:18 PM 37.7890 -80.4980 236° Southwest 480 552 38,000  Level FlightAware ADS-B
Mon 05:23:07 PM 37.7310 -80.6060 236° Southwest 479 551 38,000  Level FlightAware ADS-B
Mon 05:23:44 PM 37.6920 -80.6790 236° Southwest 479 551 38,000  Level FlightAware ADS-B
Mon 05:24:23 PM 37.6330 -80.7920 237° Southwest 477 549 38,000  Level FlightAware ADS-B
Mon 05:24:53 PM 37.5950 -80.8620 236° Southwest 477 549 38,000  Level FlightAware ADS-B
Mon 05:25:35 PM 37.5440 -80.9570 236° Southwest 477 549 38,000  Level FlightAware ADS-B
Mon 05:26:07 PM 37.5040 -81.0240 233° Southwest 479 551 38,000  Level FlightAware ADS-B
Mon 05:26:44 PM 37.4510 -81.1090 232° Southwest 478 550 38,000  Level FlightAware ADS-B
Mon 05:27:16 PM 37.4090 -81.1790 233° Southwest 478 550 38,000  Level FlightAware ADS-B
Mon 05:27:52 PM 37.3610 -81.2590 233° Southwest 477 549 38,000  Level FlightAware ADS-B
Mon 05:28:23 PM 37.3200 -81.3270 233° Southwest 475 547 38,000  Level FlightAware ADS-B
Mon 05:29:05 PM 37.2680 -81.4130 233° Southwest 475 547 38,000  Level FlightAware ADS-B
Mon 05:29:41 PM 37.2280 -81.4800 233° Southwest 475 547 38,000  Level FlightAware ADS-B
Mon 05:30:17 PM 37.1870 -81.5480 233° Southwest 475 547 38,000  Level FlightAware ADS-B
Mon 05:30:54 PM 37.1460 -81.6170 233° Southwest 475 547 38,000  Level FlightAware ADS-B
Mon 05:31:28 PM 37.1080 -81.6810 233° Southwest 475 547 38,000  Level FlightAware ADS-B
Mon 05:32:04 PM 37.0670 -81.7480 233° Southwest 475 547 38,000  Level FlightAware ADS-B
Mon 05:32:40 PM 37.0270 -81.8150 233° Southwest 475 547 38,000  Level FlightAware ADS-B
Mon 05:33:16 PM 36.9860 -81.8820 233° Southwest 475 547 38,000  Level FlightAware ADS-B
Mon 05:33:52 PM 36.9460 -81.9500 234° Southwest 475 547 38,000  Level FlightAware ADS-B
Mon 05:33:59 PM 36.8751 -82.0565 230° Southwest 464 534 38,000  Level FlightAware ADS-B
Mon 05:34:33 PM 36.8317 -82.1271 232° Southwest 462 532 38,000  Level FlightAware ADS-B
Mon 05:35:04 PM 36.8650 -82.0840 46° Northeast 475 547 38,000  Level FlightAware ADS-B
Mon 05:35:40 PM 36.8240 -82.1510 233° Southwest 475 547 38,000  Level FlightAware ADS-B
Mon 05:36:16 PM 36.7840 -82.2180 233° Southwest 475 547 38,000  Level FlightAware ADS-B
Mon 05:36:52 PM 36.7430 -82.2850 233° Southwest 475 547 38,000  Level FlightAware ADS-B
Mon 05:37:28 PM 36.7030 -82.3520 233° Southwest 475 547 38,000  Level FlightAware ADS-B
Mon 05:38:04 PM 36.6620 -82.4190 233° Southwest 475 547 38,000  Level FlightAware ADS-B
Mon 05:39:21 PM 36.4554 -82.7301 231° Southwest 462 532 38,000  Level FlightAware ADS-B
Mon 05:39:51 PM 36.4157 -82.7933 232° Southwest 463 533 38,000  Level FlightAware ADS-B
Mon 05:40:42 PM 36.3481 -82.9001 232° Southwest 463 533 38,000  Level FlightAware ADS-B
Mon 05:41:15 PM 36.3046 -82.9689 232° Southwest 464 534 38,000  Level FlightAware ADS-B
Mon 05:41:51 PM 36.2568 -83.0445 232° Southwest 464 534 38,000  Level FlightAware ADS-B
Mon 05:42:22 PM 36.2168 -83.1073 232° Southwest 464 534 38,000  Level FlightAware ADS-B
Mon 05:43:00 PM 36.1653 -83.1881 232° Southwest 464 534 38,000  Level FlightAware ADS-B
Mon 05:43:42 PM 36.1095 -83.2754 232° Southwest 464 534 38,000  Level FlightAware ADS-B
Mon 05:44:13 PM 36.0684 -83.3394 232° Southwest 464 534 38,000  Level FlightAware ADS-B
Mon 05:44:44 PM 36.0272 -83.4037 232° Southwest 464 534 38,000  Level FlightAware ADS-B
Mon 05:45:17 PM 35.9832 -83.4726 232° Southwest 464 534 38,000  Level FlightAware ADS-B
Mon 05:45:51 PM 35.9383 -83.5421 231° Southwest 463 533 38,000  Level FlightAware ADS-B
Mon 05:46:22 PM 35.8973 -83.6056 231° Southwest 463 533 38,000  Level FlightAware ADS-B
Mon 05:46:52 PM 35.8571 -83.6680 232° Southwest 463 533 38,000  Level FlightAware ADS-B
Mon 05:47:27 PM 35.8108 -83.7395 231° Southwest 463 533 38,000  Level FlightAware ADS-B
Mon 05:47:58 PM 35.7689 -83.8041 231° Southwest 463 533 38,000  Level FlightAware ADS-B
Mon 05:48:16 PM 35.7456 -83.8404 232° Southwest 462 532 38,000  Level FlightAware ADS-B
Mon 05:48:48 PM 35.7085 -83.9098 237° Southwest 460 529 38,000  Level FlightAware ADS-B
Mon 05:49:18 PM 35.6741 -83.9783 238° Southwest 459 528 38,000  Level FlightAware ADS-B
Mon 05:49:51 PM 35.6383 -84.0503 239° Southwest 459 528 38,000  Level FlightAware ADS-B
Mon 05:50:22 PM 35.6036 -84.1192 238° Southwest 459 528 38,000  Level FlightAware ADS-B
Mon 05:50:52 PM 35.5707 -84.1860 239° Southwest 458 527 38,000  Level FlightAware ADS-B
Mon 05:51:23 PM 35.5370 -84.2545 239° Southwest 458 527 38,000  Level FlightAware ADS-B
Mon 05:51:53 PM 35.5042 -84.3222 239° Southwest 457 526 38,000  Level FlightAware ADS-B
Mon 05:52:24 PM 35.4714 -84.3903 239° Southwest 456 525 38,000  Level FlightAware ADS-B
Mon 05:52:51 PM 35.4414 -84.4512 239° Southwest 455 524 38,000  Level FlightAware ADS-B
Mon 05:53:23 PM 35.4026 -84.5178 234° Southwest 455 524 38,000  Level FlightAware ADS-B
Mon 05:53:55 PM 35.3598 -84.5802 230° Southwest 455 524 38,000  Level FlightAware ADS-B
Mon 05:54:27 PM 35.3157 -84.6430 229° Southwest 456 525 38,000  Level FlightAware ADS-B
Mon 05:54:57 PM 35.2740 -84.7024 229° Southwest 456 525 38,000  Level FlightAware ADS-B
Mon 05:55:29 PM 35.2301 -84.7644 229° Southwest 457 526 38,000  Level FlightAware ADS-B
Mon 05:55:59 PM 35.1887 -84.8229 229° Southwest 457 526 38,000  Level FlightAware ADS-B
Mon 05:56:30 PM 35.1463 -84.8824 229° Southwest 457 526 38,000  Level FlightAware ADS-B
Mon 05:57:00 PM 35.1042 -84.9415 229° Southwest 457 526 38,000  Level FlightAware ADS-B
Mon 05:57:33 PM 35.0592 -85.0047 229° Southwest 458 527 38,000  Level FlightAware ADS-B
Mon 05:58:32 PM 34.9770 -85.1200 229° Southwest 460 529 38,000  Level FlightAware ADS-B
Mon 05:59:10 PM 34.9230 -85.1950 229° Southwest 461 531 38,000  Level FlightAware ADS-B
Mon 05:59:40 PM 34.8840 -85.2490 229° Southwest 462 532 38,000  Level FlightAware ADS-B
Mon 06:00:17 PM 34.8290 -85.3260 229° Southwest 463 533 38,000  Level FlightAware ADS-B
Mon 06:00:27 PM 34.8146 -85.3461 229° Southwest 463 533 38,000 493 Level FlightAware ADS-B
Mon 06:01:30 PM 34.7280 -85.4670 229° Southwest 461 531 38,600 701 Climbing FlightAware ADS-B
Mon 06:01:44 PM 34.7070 -85.4954 228° Southwest 461 531 38,900 943 Climbing FlightAware ADS-B
Mon 06:02:40 PM 34.6300 -85.6020 229° Southwest 457 526 39,700 725 Climbing FlightAware ADS-B
Mon 06:03:15 PM 34.5800 -85.6710 229° Southwest 458 527 40,000 273 Climbing FlightAware ADS-B
Mon 06:03:46 PM 34.5390 -85.7270 228° Southwest 458 527 40,000  Level FlightAware ADS-B
Mon 06:04:24 PM 34.4850 -85.8010 228° Southwest 458 527 40,000  Level FlightAware ADS-B
Mon 06:05:01 PM 34.4310 -85.8750 229° Southwest 456 525 40,000  Level FlightAware ADS-B
Mon 06:05:36 PM 34.3830 -85.9400 228° Southwest 456 525 40,000  Level FlightAware ADS-B
Mon 06:06:06 PM 34.3420 -85.9960 228° Southwest 454 522 40,000  Level FlightAware ADS-B
Mon 06:06:43 PM 34.2900 -86.0670 228° Southwest 454 522 40,000  Level FlightAware ADS-B
Mon 06:07:18 PM 34.2430 -86.1310 228° Southwest 454 522 40,000  Level FlightAware ADS-B
Mon 06:07:52 PM 34.2010 -86.2030 235° Southwest 453 521 40,000  Level FlightAware ADS-B
Mon 06:08:44 PM 34.1470 -86.3190 241° Southwest 453 521 40,000  Level FlightAware ADS-B
Mon 06:09:21 PM 34.1100 -86.4030 242° Southwest 455 524 40,000  Level FlightAware ADS-B
Mon 06:09:53 PM 34.0800 -86.4740 243° Southwest 457 526 40,000  Level FlightAware ADS-B
Mon 06:10:28 PM 34.0460 -86.5530 243° Southwest 459 528 40,000  Level FlightAware ADS-B
Mon 06:11:03 PM 34.0130 -86.6300 243° Southwest 460 529 40,000  Level FlightAware ADS-B
Mon 06:11:37 PM 33.9770 -86.7120 242° Southwest 462 532 40,000  Level FlightAware ADS-B
Mon 06:11:55 PM 33.9596 -86.7534 243° Southwest 463 533 40,000  Level FlightAware ADS-B
Mon 06:12:57 PM 33.8980 -86.8950 242° Southwest 463 533 40,000  Level FlightAware ADS-B
Mon 06:13:30 PM 33.8660 -86.9690 243° Southwest 463 533 40,000  Level FlightAware ADS-B
Mon 06:14:05 PM 33.8310 -87.0480 242° Southwest 464 534 40,000  Level FlightAware ADS-B
Mon 06:14:42 PM 33.7940 -87.1330 242° Southwest 465 535 40,000  Level FlightAware ADS-B
Mon 06:15:12 PM 33.7630 -87.2040 242° Southwest 465 535 40,000  Level FlightAware ADS-B
Mon 06:15:49 PM 33.7260 -87.2870 242° Southwest 467 537 40,000  Level FlightAware ADS-B
Mon 06:16:26 PM 33.6890 -87.3710 242° Southwest 468 539 40,000  Level FlightAware ADS-B
Mon 06:17:03 PM 33.6520 -87.4550 242° Southwest 468 539 40,000  Level FlightAware ADS-B
Mon 06:17:35 PM 33.6200 -87.5290 243° Southwest 468 539 40,000  Level FlightAware ADS-B
Mon 06:18:12 PM 33.5810 -87.6140 241° Southwest 469 540 40,000  Level FlightAware ADS-B
Mon 06:18:46 PM 33.5470 -87.6920 242° Southwest 470 541 40,000  Level FlightAware ADS-B
Mon 06:19:19 PM 33.5130 -87.7680 242° Southwest 470 541 40,000  Level FlightAware ADS-B
Mon 06:19:56 PM 33.4750 -87.8520 242° Southwest 470 541 40,000  Level FlightAware ADS-B
Mon 06:20:29 PM 33.4420 -87.9270 242° Southwest 470 541 40,000  Level FlightAware ADS-B
Mon 06:21:05 PM 33.4050 -88.0080 241° Southwest 471 542 40,000  Level FlightAware ADS-B
Mon 06:21:40 PM 33.3680 -88.0910 242° Southwest 471 542 40,000  Level FlightAware ADS-B
Mon 06:22:16 PM 33.3320 -88.1710 242° Southwest 470 541 40,000  Level FlightAware ADS-B
Mon 06:22:51 PM 33.2940 -88.2540 241° Southwest 470 541 40,000  Level FlightAware ADS-B
Mon 06:23:26 PM 33.2590 -88.3310 241° Southwest 470 541 40,000  Level FlightAware ADS-B
Mon 06:24:03 PM 33.2200 -88.4160 241° Southwest 469 540 40,000  Level FlightAware ADS-B
Mon 06:24:35 PM 33.1880 -88.4880 242° Southwest 469 540 40,000  Level FlightAware ADS-B
Mon 06:25:10 PM 33.1520 -88.5670 241° Southwest 469 540 40,000  Level FlightAware ADS-B
Mon 06:25:47 PM 33.1120 -88.6540 241° Southwest 468 539 40,000  Level FlightAware ADS-B
Mon 06:26:23 PM 33.0760 -88.7330 241° Southwest 468 539 40,000  Level FlightAware ADS-B
Mon 06:26:54 PM 33.0430 -88.8040 241° Southwest 468 539 40,000  Level FlightAware ADS-B
Mon 06:27:30 PM 33.0060 -88.8850 241° Southwest 468 539 40,000  Level FlightAware ADS-B
Mon 06:28:06 PM 32.9690 -88.9660 241° Southwest 467 537 40,000  Level FlightAware ADS-B
Mon 06:28:40 PM 32.9330 -89.0430 241° Southwest 467 537 40,000  Level FlightAware ADS-B
Mon 06:29:12 PM 32.9010 -89.1120 241° Southwest 466 536 40,000  Level FlightAware ADS-B
Mon 06:29:51 PM 32.8580 -89.2040 241° Southwest 465 535 40,000  Level FlightAware ADS-B
Mon 06:30:27 PM 32.8230 -89.2800 241° Southwest 466 536 40,000  Level FlightAware ADS-B
Mon 06:30:59 PM 32.7870 -89.3560 241° Southwest 466 536 40,000  Level FlightAware ADS-B
Mon 06:31:40 PM 32.7490 -89.4380 241° Southwest 466 536 40,000  Level FlightAware ADS-B
Mon 06:32:19 PM 32.7050 -89.5310 241° Southwest 467 537 40,000  Level FlightAware ADS-B
Mon 06:32:48 PM 32.6730 -89.5990 241° Southwest 468 539 40,000  Level FlightAware ADS-B
Mon 06:33:28 PM 32.6370 -89.6740 240° Southwest 468 539 40,000  Level FlightAware ADS-B
Mon 06:34:08 PM 32.5920 -89.7690 241° Southwest 468 539 40,000  Level FlightAware ADS-B
Mon 06:34:44 PM 32.5590 -89.8370 240° Southwest 468 539 40,000  Level FlightAware ADS-B
Mon 06:35:20 PM 32.5260 -89.9050 240° Southwest 468 539 40,000  Level FlightAware ADS-B
Mon 06:35:56 PM 32.4930 -89.9730 240° Southwest 468 539 40,000  Level FlightAware ADS-B
Mon 06:36:32 PM 32.4600 -90.0410 240° Southwest 468 539 40,000  Level FlightAware ADS-B
Mon 06:37:08 PM 32.4270 -90.1090 240° Southwest 468 539 40,000  Level FlightAware ADS-B
Mon 06:37:45 PM 32.3920 -90.1790 239° Southwest 468 539 40,000  Level FlightAware ADS-B
Mon 06:38:21 PM 32.3590 -90.2470 240° Southwest 468 539 40,000  Level FlightAware ADS-B
Mon 06:38:57 PM 32.3260 -90.3150 240° Southwest 468 539 40,000  Level FlightAware ADS-B
Mon 06:39:31 PM 32.2950 -90.3790 240° Southwest 468 539 40,000  Level FlightAware ADS-B
Mon 06:40:07 PM 32.2620 -90.4470 240° Southwest 468 539 40,000  Level FlightAware ADS-B
Mon 06:40:43 PM 32.2290 -90.5150 240° Southwest 468 539 40,000  Level FlightAware ADS-B
Mon 06:41:19 PM 32.1960 -90.5830 240° Southwest 468 539 40,000  Level FlightAware ADS-B
Mon 06:41:55 PM 32.1620 -90.6510 239° Southwest 468 539 40,000  Level FlightAware ADS-B
Mon 06:42:31 PM 32.1290 -90.7180 240° Southwest 468 539 40,000  Level FlightAware ADS-B
Mon 06:43:07 PM 32.0960 -90.7860 240° Southwest 468 539 40,000  Level FlightAware ADS-B
Mon 06:48:22 PM 31.6846 -91.6428 241° Southwest 452 520 40,000  Level FlightAware ADS-B
Mon 06:49:51 PM 31.6100 -91.7986 241° Southwest 447 514 40,000  Level Houston Center
Mon 06:50:53 PM 31.5486 -91.9239 240° Southwest 443 510 40,000  Level Houston Center
Mon 06:56:25 PM 31.1775 -92.6374 240° Southwest 437 503 40,000  Level FlightAware ADS-B
Mon 06:57:22 PM 31.1147 -92.7490 237° Southwest 435 501 40,000 -68 Level FlightAware ADS-B
Mon 06:57:53 PM 31.0805 -92.8101 237° Southwest 433 498 39,900 -932 Descending FlightAware ADS-B
Mon 06:59:05 PM 31.0022 -92.9500 237° Southwest 431 496 38,400 -1,118 Descending FlightAware ADS-B
Mon 06:59:35 PM 30.9760 -92.9970 237° Southwest 429 494 38,000 -1,000 Descending FlightAware ADS-B
Mon 06:59:53 PM 30.9500 -93.0427 236° Southwest 425 489 37,600 -1,224 Descending FlightAware ADS-B
Mon 07:00:24 PM 30.9166 -93.1023 237° Southwest 425 489 37,000 -1,412 Descending FlightAware ADS-B
Mon 07:01:01 PM 30.8771 -93.1720 237° Southwest 427 491 36,000 -1,955 Descending FlightAware ADS-B
Mon 07:01:53 PM 30.8189 -93.2746 237° Southwest 444 511 34,100 -2,530 Descending FlightAware ADS-B
Mon 07:02:24 PM 30.7832 -93.3378 237° Southwest 451 519 32,500 -2,906 Descending FlightAware ADS-B
Mon 07:02:57 PM 30.7456 -93.4037 236° Southwest 455 524 31,000 -2,545 Descending FlightAware ADS-B
Mon 07:03:30 PM 30.7070 -93.4717 237° Southwest 450 518 29,700 -2,328 Descending FlightAware ADS-B
Mon 07:04:04 PM 30.6688 -93.5383 236° Southwest 448 516 28,400 -2,091 Descending FlightAware ADS-B
Mon 07:04:36 PM 30.6317 -93.6034 236° Southwest 440 506 27,400 -2,132 Descending FlightAware ADS-B
Mon 07:05:20 PM 30.5832 -93.6883 236° Southwest 433 498 25,700 5,571 Descending FlightAware ADS-B
Mon 07:06:14 PM 30.5940 -93.6790 37° Northeast 427 491 36,500 7,121 Climbing FlightAware ADS-B
Mon 07:06:51 PM 30.5600 -93.7400 237° Southwest 427 491 36,500  Level FlightAware ADS-B
Mon 07:07:27 PM 30.5270 -93.7990 237° Southwest 427 491 36,500 -13,325 Level FlightAware ADS-B
Mon 07:08:08 PM 30.4042 -93.9999 235° Southwest 404 465 19,400 -15,380 Descending FlightAware ADS-B
Mon 07:08:38 PM 30.3733 -94.0535 236° Southwest 400 460 18,300 -2,200 Descending FlightAware ADS-B
Mon 07:09:08 PM 30.3425 -94.1067 236° Southwest 397 457 17,200 -2,200 Descending FlightAware ADS-B
Mon 07:09:38 PM 30.3120 -94.1595 236° Southwest 392 451 16,100 -2,164 Descending FlightAware ADS-B
Mon 07:10:09 PM 30.2811 -94.2129 236° Southwest 387 445 15,000 -2,262 Descending FlightAware ADS-B
Mon 07:10:39 PM 30.2514 -94.2641 236° Southwest 384 442 13,800 -2,262 Descending FlightAware ADS-B
Mon 07:11:10 PM 30.2217 -94.3153 236° Southwest 373 429 12,700 -2,000 Descending FlightAware ADS-B
Mon 07:11:24 PM 30.2081 -94.3389 236° Southwest 366 421 12,300 -1,636 Descending FlightAware ADS-B
Mon 07:11:32 PM 30.2016 -94.3521 240° Southwest 364 419 12,100 -1,000 Descending FlightAware ADS-B
Mon 07:11:42 PM 30.1944 -94.3700 245° Southwest 359 413 12,000 -231 Descending FlightAware ADS-B
Mon 07:11:58 PM 30.1861 -94.3997 252° West 354 407 12,000  Level FlightAware ADS-B
Mon 07:12:19 PM 30.1786 -94.4383 257° West 355 409 12,000 -577 Level FlightAware ADS-B
Mon 07:12:50 PM 30.1693 -94.4946 259° West 351 404 11,500 -1,455 Descending FlightAware ADS-B
Mon 07:13:25 PM 30.1588 -94.5580 259° West 347 399 10,400 -1,525 Descending FlightAware ADS-B
Mon 07:13:49 PM 30.1517 -94.6019 259° West 336 387 10,000 -769 Descending FlightAware ADS-B
Mon 07:14:04 PM 30.1472 -94.6284 259° West 322 371 9,900 -387 Descending FlightAware ADS-B
Mon 07:14:20 PM 30.1427 -94.6538 258° West 313 360 9,800 -774 Descending FlightAware ADS-B
Mon 07:14:35 PM 30.1384 -94.6788 259° West 307 353 9,500 -1,200 Descending FlightAware ADS-B
Mon 07:14:50 PM 30.1343 -94.7030 259° West 303 349 9,200 -1,125 Descending FlightAware ADS-B
Mon 07:15:07 PM 30.1296 -94.7288 258° West 299 344 8,900 -1,125 Descending FlightAware ADS-B
Mon 07:15:22 PM 30.1255 -94.7528 259° West 296 341 8,600 -1,400 Descending FlightAware ADS-B
Mon 07:15:37 PM 30.1214 -94.7758 258° West 294 338 8,200 -1,600 Descending FlightAware ADS-B
Mon 07:15:52 PM 30.1175 -94.7990 259° West 294 338 7,800 -1,440 Descending FlightAware ADS-B
Mon 07:16:27 PM 30.1084 -94.8523 259° West 295 339 7,000 -1,440 Descending FlightAware ADS-B
Mon 07:16:42 PM 30.1042 -94.8762 259° West 293 337 6,600 -1,385 Descending FlightAware ADS-B
Mon 07:16:53 PM 30.1015 -94.8925 259° West 293 337 6,400 -1,333 Descending FlightAware ADS-B
Mon 07:17:00 PM 30.1003 -94.9026 262° West 293 337 6,200 -1,385 Descending FlightAware ADS-B
Mon 07:17:06 PM 30.0994 -94.9133 264° West 293 337 6,100 -667 Descending FlightAware ADS-B
Mon 07:17:18 PM 30.0989 -94.9318 268° West 290 334 6,000 -222 Descending FlightAware ADS-B
Mon 07:17:33 PM 30.0989 -94.9555 270° West 293 337 6,000  Level FlightAware ADS-B
Mon 07:17:49 PM 30.0989 -94.9799 270° West 292 336 6,000  Level FlightAware ADS-B
Mon 07:18:05 PM 30.0991 -95.0041 271° West 291 335 6,000  Level FlightAware ADS-B
Mon 07:18:21 PM 30.0993 -95.0288 271° West 291 335 6,000  Level FlightAware ADS-B
Mon 07:18:36 PM 30.0994 -95.0525 270° West 292 336 6,000  Level FlightAware ADS-B
Mon 07:18:52 PM 30.0996 -95.0783 271° West 294 338 6,000  Level FlightAware ADS-B
Mon 07:19:08 PM 30.0996 -95.1030 270° West 292 336 6,000  Level FlightAware ADS-B
Mon 07:19:23 PM 30.0998 -95.1265 271° West 291 335 6,000  Level FlightAware ADS-B
Mon 07:19:39 PM 30.1000 -95.1514 271° West 292 336 6,000  Level FlightAware ADS-B
Mon 07:19:56 PM 30.1000 -95.1770 270° West 292 336 6,000  Level FlightAware ADS-B
Mon 07:20:11 PM 30.1000 -95.2003 270° West 291 335 6,000  Level FlightAware ADS-B
Mon 07:20:26 PM 30.1001 -95.2242 270° West 292 336 6,000  Level FlightAware ADS-B
Mon 07:20:41 PM 30.1001 -95.2479 270° West 293 337 6,000  Level FlightAware ADS-B
Mon 07:20:56 PM 30.1001 -95.2716 270° West 290 334 6,000  Level FlightAware ADS-B
Mon 07:21:28 PM 30.1003 -95.3203 271° West 294 338 6,000  Level FlightAware ADS-B
Mon 07:21:44 PM 30.1003 -95.3462 270° West 292 336 6,000 -188 Level FlightAware ADS-B
Mon 07:22:00 PM 30.1003 -95.3701 270° West 291 335 5,900 -750 Descending FlightAware ADS-B
Mon 07:22:16 PM 30.1005 -95.3945 271° West 288 331 5,600 -1,355 Descending FlightAware ADS-B
Mon 07:22:31 PM 30.1005 -95.4184 270° West 286 329 5,200 -1,440 Descending FlightAware ADS-B
Mon 07:22:41 PM 30.1003 -95.4336 269° West 285 328 5,000 -1,385 Descending FlightAware ADS-B
Mon 07:22:44 PM 30.1000 -95.4388 266° West 283 326 4,900 -1,371 Descending FlightAware ADS-B
Mon 07:23:16 PM 30.0888 -95.4836 254° West 275 316 4,200 -1,412 Descending FlightAware ADS-B
Mon 07:23:35 PM 30.0807 -95.5092 250° West 270 311 3,700 -1,615 Descending FlightAware ADS-B
Mon 07:23:42 PM 30.0763 -95.5183 241° Southwest 259 298 3,500 -1,286 Descending FlightAware ADS-B
Mon 07:23:49 PM 30.0704 -95.5256 227° Southwest 252 290 3,400 -545 Descending FlightAware ADS-B
Mon 07:23:53 PM 30.0672 -95.5284 217° Southwest 243 280 3,400 -750 Level FlightAware ADS-B
Mon 07:23:57 PM 30.0634 -95.5308 209° Southwest 237 273 3,300 -1,091 Descending FlightAware ADS-B
Mon 07:24:04 PM 30.0562 -95.5339 200° South 227 261 3,200 -1,200 Descending FlightAware ADS-B
Mon 07:24:12 PM 30.0479 -95.5349 186° South 218 251 3,000 -923 Descending FlightAware ADS-B
Mon 07:24:17 PM 30.0431 -95.5344 175° South 212 244 3,000  Level FlightAware ADS-B
Mon 07:24:26 PM 30.0349 -95.5329 171° South 203 234 3,000  Level FlightAware ADS-B
Mon 07:24:37 PM 30.0249 -95.5302 167° South 194 223 3,000  Level FlightAware ADS-B
Mon 07:24:52 PM 30.0121 -95.5268 167° South 181 208 3,000  Level FlightAware ADS-B
Mon 07:24:57 PM 30.0083 -95.5256 165° South 178 205 3,000  Level FlightAware ADS-B
Mon 07:25:00 PM 30.0059 -95.5244 157° South 175 201 3,000  Level FlightAware ADS-B
Mon 07:25:08 PM 30.0005 -95.5200 145° Southeast 167 192 3,000 -375 Level FlightAware ADS-B
Mon 07:25:16 PM 29.9968 -95.5148 129° Southeast 170 196 2,900 -800 Descending FlightAware ADS-B
Mon 07:25:23 PM 29.9937 -95.5096 125° Southeast 174 200 2,800 -1,385 Descending FlightAware ADS-B
Mon 07:25:29 PM 29.9908 -95.5047 124° Southeast 176 203 2,600 -1,800 Descending FlightAware ADS-B
Mon 07:25:33 PM 29.9892 -95.5014 119° Southeast 178 205 2,500 -1,200 Descending FlightAware ADS-B
Mon 07:25:39 PM 29.9875 -95.4959 110° East 176 203 2,400 -1,333 Descending FlightAware ADS-B
Mon 07:25:51 PM 29.9863 -95.4846 97° East 175 201 2,100 -1,235 Descending FlightAware ADS-B
Mon 07:26:13 PM 29.9865 -95.4647 89° East 176 203 1,700 -906 Descending FlightAware ADS-B
Mon 07:26:44 PM 29.9867 -95.4384 89° East 144 166 1,300 -783 Descending FlightAware ADS-B
Mon 07:26:59 PM 29.9867 -95.4275 90° East 133 153 1,100 -643 Descending FlightAware ADS-B
Mon 07:27:12 PM 29.9868 -95.4184 89° East 130 150 1,000 -643 Descending FlightAware ADS-B
Mon 07:27:27 PM 29.9869 -95.4077 89° East 126 145 800 -774 Descending FlightAware ADS-B
Mon 07:27:43 PM 29.9869 -95.3970 90° East 121 139 600 -692 Descending FlightAware ADS-B
Mon 07:27:53 PM 29.9869 -95.3909 90° East 123 142 500 -632 Descending FlightAware ADS-B
Mon 07:28:02 PM 29.9869 -95.3849 90° East 129 148 400 -667 Descending FlightAware ADS-B
Mon 07:28:11 PM 29.9868 -95.3783 91° East 133 153 300 -353 Descending FlightAware ADS-B
Mon 07:28:19 PM 29.9869 -95.3729 89° East 133 153 300 -480 Level FlightAware ADS-B
Mon 07:28:36 PM 29.9869 -95.3603 90° East 130 150 100 -706 Descending FlightAware ADS-B

Login

Don't have an account? Register now (free) for customized features, flight alerts, and more!